sensor_id;sensor_type;location;lat;lon;timestamp;temperature;humidity
21627;DHT22;10975;47.872;12.972;2023-04-03T00:02:08;4.80;99.90
21627;DHT22;10975;47.872;12.972;2023-04-03T00:04:35;4.80;99.90
21627;DHT22;10975;47.872;12.972;2023-04-03T00:07:01;4.90;99.90
21627;DHT22;10975;47.872;12.972;2023-04-03T00:09:28;4.80;99.90
21627;DHT22;10975;47.872;12.972;2023-04-03T00:11:55;5.00;99.90
21627;DHT22;10975;47.872;12.972;2023-04-03T00:14:21;4.90;99.90
21627;DHT22;10975;47.872;12.972;2023-04-03T00:16:48;4.80;99.90
21627;DHT22;10975;47.872;12.972;2023-04-03T00:19:15;4.80;99.90
21627;DHT22;10975;47.872;12.972;2023-04-03T00:21:42;4.90;99.90
21627;DHT22;10975;47.872;12.972;2023-04-03T00:24:08;4.90;99.90
21627;DHT22;10975;47.872;12.972;2023-04-03T00:26:35;4.80;99.90
21627;DHT22;10975;47.872;12.972;2023-04-03T00:29:02;4.80;99.90
21627;DHT22;10975;47.872;12.972;2023-04-03T00:31:29;4.90;99.90
21627;DHT22;10975;47.872;12.972;2023-04-03T00:33:58;4.80;99.90
21627;DHT22;10975;47.872;12.972;2023-04-03T00:36:28;4.80;99.90
21627;DHT22;10975;47.872;12.972;2023-04-03T00:38:55;4.80;99.90
21627;DHT22;10975;47.872;12.972;2023-04-03T00:41:38;4.80;99.90
21627;DHT22;10975;47.872;12.972;2023-04-03T00:44:20;4.70;99.90
21627;DHT22;10975;47.872;12.972;2023-04-03T00:46:50;4.70;99.90
21627;DHT22;10975;47.872;12.972;2023-04-03T00:49:19;4.70;99.90
21627;DHT22;10975;47.872;12.972;2023-04-03T00:54:16;4.70;99.90
21627;DHT22;10975;47.872;12.972;2023-04-03T00:56:43;4.70;99.90
21627;DHT22;10975;47.872;12.972;2023-04-03T00:59:46;4.70;99.90
21627;DHT22;10975;47.872;12.972;2023-04-03T01:02:29;4.70;99.90
21627;DHT22;10975;47.872;12.972;2023-04-03T01:05:05;4.70;99.90
21627;DHT22;10975;47.872;12.972;2023-04-03T01:07:44;4.70;99.90
21627;DHT22;10975;47.872;12.972;2023-04-03T01:10:14;4.60;99.90
21627;DHT22;10975;47.872;12.972;2023-04-03T01:12:42;4.70;99.90
21627;DHT22;10975;47.872;12.972;2023-04-03T01:15:17;4.70;99.90
21627;DHT22;10975;47.872;12.972;2023-04-03T01:17:52;4.70;99.90
21627;DHT22;10975;47.872;12.972;2023-04-03T01:25:34;4.60;99.90
21627;DHT22;10975;47.872;12.972;2023-04-03T01:28:09;4.70;99.90
21627;DHT22;10975;47.872;12.972;2023-04-03T01:30:47;4.70;99.90
21627;DHT22;10975;47.872;12.972;2023-04-03T01:33:15;4.60;99.90
21627;DHT22;10975;47.872;12.972;2023-04-03T01:35:42;4.60;99.90
21627;DHT22;10975;47.872;12.972;2023-04-03T01:38:09;4.60;99.90
21627;DHT22;10975;47.872;12.972;2023-04-03T01:40:37;4.60;99.90
21627;DHT22;10975;47.872;12.972;2023-04-03T01:43:04;4.60;99.90
21627;DHT22;10975;47.872;12.972;2023-04-03T01:45:31;4.60;99.90
21627;DHT22;10975;47.872;12.972;2023-04-03T01:47:58;4.70;99.90
21627;DHT22;10975;47.872;12.972;2023-04-03T01:50:25;4.60;99.90
21627;DHT22;10975;47.872;12.972;2023-04-03T01:52:51;4.50;99.90
21627;DHT22;10975;47.872;12.972;2023-04-03T01:55:18;4.60;99.90
21627;DHT22;10975;47.872;12.972;2023-04-03T01:57:45;4.50;99.90
21627;DHT22;10975;47.872;12.972;2023-04-03T02:00:12;4.50;99.90
21627;DHT22;10975;47.872;12.972;2023-04-03T02:02:39;4.50;99.90
21627;DHT22;10975;47.872;12.972;2023-04-03T02:05:06;4.60;99.90
21627;DHT22;10975;47.872;12.972;2023-04-03T02:07:33;4.50;99.90
21627;DHT22;10975;47.872;12.972;2023-04-03T02:10:00;4.50;99.90
21627;DHT22;10975;47.872;12.972;2023-04-03T02:15:24;4.50;99.90
21627;DHT22;10975;47.872;12.972;2023-04-03T02:18:14;4.50;99.90
21627;DHT22;10975;47.872;12.972;2023-04-03T02:20:41;4.50;99.90
21627;DHT22;10975;47.872;12.972;2023-04-03T02:23:08;4.40;99.90
21627;DHT22;10975;47.872;12.972;2023-04-03T02:25:37;4.30;99.90
21627;DHT22;10975;47.872;12.972;2023-04-03T02:28:04;4.40;99.90
21627;DHT22;10975;47.872;12.972;2023-04-03T02:30:31;4.50;99.90
21627;DHT22;10975;47.872;12.972;2023-04-03T02:32:58;4.40;99.90
21627;DHT22;10975;47.872;12.972;2023-04-03T02:35:25;4.50;99.90
21627;DHT22;10975;47.872;12.972;2023-04-03T02:37:55;4.40;99.90
21627;DHT22;10975;47.872;12.972;2023-04-03T02:40:22;4.40;99.90
21627;DHT22;10975;47.872;12.972;2023-04-03T02:42:48;4.30;99.90
21627;DHT22;10975;47.872;12.972;2023-04-03T02:45:16;4.40;99.90
21627;DHT22;10975;47.872;12.972;2023-04-03T02:47:42;4.50;99.90
21627;DHT22;10975;47.872;12.972;2023-04-03T02:50:09;4.50;99.90
21627;DHT22;10975;47.872;12.972;2023-04-03T02:52:36;4.50;99.90
21627;DHT22;10975;47.872;12.972;2023-04-03T02:55:03;4.40;99.90
21627;DHT22;10975;47.872;12.972;2023-04-03T02:57:30;4.40;99.90
21627;DHT22;10975;47.872;12.972;2023-04-03T02:59:57;4.40;99.90
21627;DHT22;10975;47.872;12.972;2023-04-03T03:02:26;4.30;99.90
21627;DHT22;10975;47.872;12.972;2023-04-03T03:04:55;4.30;99.90
21627;DHT22;10975;47.872;12.972;2023-04-03T03:07:27;4.40;99.90
21627;DHT22;10975;47.872;12.972;2023-04-03T03:09:54;4.40;99.90
21627;DHT22;10975;47.872;12.972;2023-04-03T03:12:21;4.40;99.90
21627;DHT22;10975;47.872;12.972;2023-04-03T03:14:50;4.40;99.90
21627;DHT22;10975;47.872;12.972;2023-04-03T03:17:16;4.30;99.90
21627;DHT22;10975;47.872;12.972;2023-04-03T03:19:44;4.30;99.90
21627;DHT22;10975;47.872;12.972;2023-04-03T03:22:12;4.30;99.90
21627;DHT22;10975;47.872;12.972;2023-04-03T03:24:38;4.30;99.90
21627;DHT22;10975;47.872;12.972;2023-04-03T03:27:22;4.30;99.90
21627;DHT22;10975;47.872;12.972;2023-04-03T03:30:00;4.30;99.90
21627;DHT22;10975;47.872;12.972;2023-04-03T03:32:28;4.20;99.90
21627;DHT22;10975;47.872;12.972;2023-04-03T03:34:54;4.20;99.90
21627;DHT22;10975;47.872;12.972;2023-04-03T03:37:21;4.30;99.90
21627;DHT22;10975;47.872;12.972;2023-04-03T03:39:48;4.40;99.90
21627;DHT22;10975;47.872;12.972;2023-04-03T03:42:15;4.30;99.90
21627;DHT22;10975;47.872;12.972;2023-04-03T03:45:02;4.30;99.90
21627;DHT22;10975;47.872;12.972;2023-04-03T03:47:31;4.30;99.90
21627;DHT22;10975;47.872;12.972;2023-04-03T03:49:58;4.30;99.90
21627;DHT22;10975;47.872;12.972;2023-04-03T03:52:25;4.20;99.90
21627;DHT22;10975;47.872;12.972;2023-04-03T03:54:53;4.20;99.90
21627;DHT22;10975;47.872;12.972;2023-04-03T03:57:20;4.30;99.90
21627;DHT22;10975;47.872;12.972;2023-04-03T03:59:47;4.30;99.90
21627;DHT22;10975;47.872;12.972;2023-04-03T04:02:15;4.30;99.90
21627;DHT22;10975;47.872;12.972;2023-04-03T04:04:42;4.30;99.90
21627;DHT22;10975;47.872;12.972;2023-04-03T04:07:09;4.30;99.90
21627;DHT22;10975;47.872;12.972;2023-04-03T04:09:36;4.20;99.90
21627;DHT22;10975;47.872;12.972;2023-04-03T04:12:02;4.10;99.90
21627;DHT22;10975;47.872;12.972;2023-04-03T04:14:29;4.20;99.90
21627;DHT22;10975;47.872;12.972;2023-04-03T04:16:56;4.20;99.90
21627;DHT22;10975;47.872;12.972;2023-04-03T04:19:23;4.20;99.90
21627;DHT22;10975;47.872;12.972;2023-04-03T04:21:49;4.20;99.90
21627;DHT22;10975;47.872;12.972;2023-04-03T04:24:16;4.20;99.90
21627;DHT22;10975;47.872;12.972;2023-04-03T04:26:43;4.20;99.90
21627;DHT22;10975;47.872;12.972;2023-04-03T04:29:10;4.20;99.90
21627;DHT22;10975;47.872;12.972;2023-04-03T04:31:36;4.10;99.90
21627;DHT22;10975;47.872;12.972;2023-04-03T04:34:03;4.10;99.90
21627;DHT22;10975;47.872;12.972;2023-04-03T04:36:30;4.00;99.90
21627;DHT22;10975;47.872;12.972;2023-04-03T04:38:57;4.00;99.90
21627;DHT22;10975;47.872;12.972;2023-04-03T04:41:24;4.10;99.90
21627;DHT22;10975;47.872;12.972;2023-04-03T04:43:52;4.10;99.90
21627;DHT22;10975;47.872;12.972;2023-04-03T04:46:18;4.10;99.90
21627;DHT22;10975;47.872;12.972;2023-04-03T04:48:45;4.10;99.90
21627;DHT22;10975;47.872;12.972;2023-04-03T04:51:12;4.10;99.90
21627;DHT22;10975;47.872;12.972;2023-04-03T04:53:38;4.10;99.90
21627;DHT22;10975;47.872;12.972;2023-04-03T04:56:05;4.10;99.90
21627;DHT22;10975;47.872;12.972;2023-04-03T04:58:32;4.10;99.90
21627;DHT22;10975;47.872;12.972;2023-04-03T05:01:02;4.10;99.90
21627;DHT22;10975;47.872;12.972;2023-04-03T05:03:29;4.10;99.90
21627;DHT22;10975;47.872;12.972;2023-04-03T05:05:56;4.00;99.90
21627;DHT22;10975;47.872;12.972;2023-04-03T05:08:24;4.00;99.90
21627;DHT22;10975;47.872;12.972;2023-04-03T05:10:51;4.00;99.90
21627;DHT22;10975;47.872;12.972;2023-04-03T05:13:21;4.00;99.90
21627;DHT22;10975;47.872;12.972;2023-04-03T05:15:48;4.00;99.90
21627;DHT22;10975;47.872;12.972;2023-04-03T05:18:15;4.00;99.90
21627;DHT22;10975;47.872;12.972;2023-04-03T05:20:41;4.00;99.90
21627;DHT22;10975;47.872;12.972;2023-04-03T05:23:10;4.00;99.90
21627;DHT22;10975;47.872;12.972;2023-04-03T05:25:37;4.10;99.90
21627;DHT22;10975;47.872;12.972;2023-04-03T05:28:04;4.00;99.90
21627;DHT22;10975;47.872;12.972;2023-04-03T05:30:31;4.10;99.90
21627;DHT22;10975;47.872;12.972;2023-04-03T05:32:58;4.10;99.90
21627;DHT22;10975;47.872;12.972;2023-04-03T05:35:25;4.10;99.90
21627;DHT22;10975;47.872;12.972;2023-04-03T05:37:55;4.10;99.90
21627;DHT22;10975;47.872;12.972;2023-04-03T05:40:21;4.10;99.90
21627;DHT22;10975;47.872;12.972;2023-04-03T05:42:48;4.10;99.90
21627;DHT22;10975;47.872;12.972;2023-04-03T05:45:15;4.20;99.90
21627;DHT22;10975;47.872;12.972;2023-04-03T05:47:41;4.20;99.90
21627;DHT22;10975;47.872;12.972;2023-04-03T05:50:08;4.10;99.90
21627;DHT22;10975;47.872;12.972;2023-04-03T05:52:37;4.20;99.90
21627;DHT22;10975;47.872;12.972;2023-04-03T05:55:04;4.20;99.90
21627;DHT22;10975;47.872;12.972;2023-04-03T05:57:31;4.20;99.90
21627;DHT22;10975;47.872;12.972;2023-04-03T05:59:57;4.20;99.90
21627;DHT22;10975;47.872;12.972;2023-04-03T06:02:24;4.20;99.90
21627;DHT22;10975;47.872;12.972;2023-04-03T06:04:52;4.20;99.90
21627;DHT22;10975;47.872;12.972;2023-04-03T06:07:20;4.20;99.90
21627;DHT22;10975;47.872;12.972;2023-04-03T06:09:49;4.30;99.90
21627;DHT22;10975;47.872;12.972;2023-04-03T06:12:17;4.30;99.90
21627;DHT22;10975;47.872;12.972;2023-04-03T06:14:44;4.30;99.90
21627;DHT22;10975;47.872;12.972;2023-04-03T06:17:11;4.30;99.90
21627;DHT22;10975;47.872;12.972;2023-04-03T06:19:39;4.30;99.90
21627;DHT22;10975;47.872;12.972;2023-04-03T06:22:05;4.30;99.90
21627;DHT22;10975;47.872;12.972;2023-04-03T06:24:32;4.40;99.90
21627;DHT22;10975;47.872;12.972;2023-04-03T06:26:59;4.40;99.90
21627;DHT22;10975;47.872;12.972;2023-04-03T06:29:26;4.30;99.90
21627;DHT22;10975;47.872;12.972;2023-04-03T06:31:52;4.30;99.90
21627;DHT22;10975;47.872;12.972;2023-04-03T06:34:19;4.50;99.90
21627;DHT22;10975;47.872;12.972;2023-04-03T06:36:46;4.40;99.90
21627;DHT22;10975;47.872;12.972;2023-04-03T06:39:14;4.40;99.90
21627;DHT22;10975;47.872;12.972;2023-04-03T06:41:42;4.50;99.90
21627;DHT22;10975;47.872;12.972;2023-04-03T06:44:09;4.50;99.90
21627;DHT22;10975;47.872;12.972;2023-04-03T06:46:37;4.50;99.90
21627;DHT22;10975;47.872;12.972;2023-04-03T06:49:05;4.40;99.90
21627;DHT22;10975;47.872;12.972;2023-04-03T06:51:34;4.60;99.90
21627;DHT22;10975;47.872;12.972;2023-04-03T06:54:02;4.50;99.90
21627;DHT22;10975;47.872;12.972;2023-04-03T06:56:29;4.50;99.90
21627;DHT22;10975;47.872;12.972;2023-04-03T06:58:59;4.60;99.90
21627;DHT22;10975;47.872;12.972;2023-04-03T07:01:26;4.60;99.90
21627;DHT22;10975;47.872;12.972;2023-04-03T07:03:54;4.60;99.90
21627;DHT22;10975;47.872;12.972;2023-04-03T07:06:22;4.60;99.90
21627;DHT22;10975;47.872;12.972;2023-04-03T07:08:48;4.50;99.90
21627;DHT22;10975;47.872;12.972;2023-04-03T07:11:15;4.60;99.90
21627;DHT22;10975;47.872;12.972;2023-04-03T07:13:42;4.60;99.90
21627;DHT22;10975;47.872;12.972;2023-04-03T07:16:09;4.60;99.90
21627;DHT22;10975;47.872;12.972;2023-04-03T07:18:36;4.70;99.90
21627;DHT22;10975;47.872;12.972;2023-04-03T07:21:03;4.80;99.90
21627;DHT22;10975;47.872;12.972;2023-04-03T07:23:30;4.80;99.90
21627;DHT22;10975;47.872;12.972;2023-04-03T07:25:56;4.80;99.90
21627;DHT22;10975;47.872;12.972;2023-04-03T07:28:23;4.90;99.90
21627;DHT22;10975;47.872;12.972;2023-04-03T07:30:51;4.80;99.90
21627;DHT22;10975;47.872;12.972;2023-04-03T07:33:18;4.90;99.90
21627;DHT22;10975;47.872;12.972;2023-04-03T07:35:45;4.90;99.90
21627;DHT22;10975;47.872;12.972;2023-04-03T07:38:12;4.90;99.90
21627;DHT22;10975;47.872;12.972;2023-04-03T07:40:39;5.00;99.90
21627;DHT22;10975;47.872;12.972;2023-04-03T07:43:06;5.20;99.90
21627;DHT22;10975;47.872;12.972;2023-04-03T07:45:34;5.20;99.90
21627;DHT22;10975;47.872;12.972;2023-04-03T07:48:01;5.10;99.90
21627;DHT22;10975;47.872;12.972;2023-04-03T07:50:28;5.10;99.90
21627;DHT22;10975;47.872;12.972;2023-04-03T07:52:56;5.20;99.90
21627;DHT22;10975;47.872;12.972;2023-04-03T07:55:24;5.30;99.90
21627;DHT22;10975;47.872;12.972;2023-04-03T07:57:51;5.40;99.90
21627;DHT22;10975;47.872;12.972;2023-04-03T08:00:17;5.40;99.90
21627;DHT22;10975;47.872;12.972;2023-04-03T08:02:46;5.40;99.90
21627;DHT22;10975;47.872;12.972;2023-04-03T08:05:18;5.50;99.90
21627;DHT22;10975;47.872;12.972;2023-04-03T08:07:45;5.60;99.90
21627;DHT22;10975;47.872;12.972;2023-04-03T08:10:13;5.60;99.90
21627;DHT22;10975;47.872;12.972;2023-04-03T08:12:40;5.80;99.90
21627;DHT22;10975;47.872;12.972;2023-04-03T08:15:07;5.90;99.90
21627;DHT22;10975;47.872;12.972;2023-04-03T08:17:34;5.90;99.90
21627;DHT22;10975;47.872;12.972;2023-04-03T08:20:02;6.00;99.90
21627;DHT22;10975;47.872;12.972;2023-04-03T08:22:29;6.00;99.90
21627;DHT22;10975;47.872;12.972;2023-04-03T08:24:57;6.20;99.90
21627;DHT22;10975;47.872;12.972;2023-04-03T08:27:25;6.20;99.90
21627;DHT22;10975;47.872;12.972;2023-04-03T08:29:54;6.20;99.90
21627;DHT22;10975;47.872;12.972;2023-04-03T08:32:20;6.20;99.90
21627;DHT22;10975;47.872;12.972;2023-04-03T08:34:47;6.30;99.90
21627;DHT22;10975;47.872;12.972;2023-04-03T08:37:14;6.40;99.90
21627;DHT22;10975;47.872;12.972;2023-04-03T08:39:42;6.30;99.90
21627;DHT22;10975;47.872;12.972;2023-04-03T08:42:22;6.40;99.90
21627;DHT22;10975;47.872;12.972;2023-04-03T08:44:55;6.40;99.90
21627;DHT22;10975;47.872;12.972;2023-04-03T08:49:56;6.40;99.90
21627;DHT22;10975;47.872;12.972;2023-04-03T08:52:39;6.60;99.90
21627;DHT22;10975;47.872;12.972;2023-04-03T08:57:44;6.60;99.90
21627;DHT22;10975;47.872;12.972;2023-04-03T09:00:19;6.70;99.90
21627;DHT22;10975;47.872;12.972;2023-04-03T09:02:46;6.80;99.90
21627;DHT22;10975;47.872;12.972;2023-04-03T09:05:15;6.80;99.90
21627;DHT22;10975;47.872;12.972;2023-04-03T09:07:44;7.00;99.90
21627;DHT22;10975;47.872;12.972;2023-04-03T09:10:15;7.00;99.90
21627;DHT22;10975;47.872;12.972;2023-04-03T09:12:57;7.10;99.90
21627;DHT22;10975;47.872;12.972;2023-04-03T09:15:25;7.20;99.90
21627;DHT22;10975;47.872;12.972;2023-04-03T09:26:24;7.10;99.90
21627;DHT22;10975;47.872;12.972;2023-04-03T09:28:48;7.00;99.90
21627;DHT22;10975;47.872;12.972;2023-04-03T09:31:23;6.90;99.90
21627;DHT22;10975;47.872;12.972;2023-04-03T09:33:53;6.80;99.90
21627;DHT22;10975;47.872;12.972;2023-04-03T09:36:37;6.70;99.90
21627;DHT22;10975;47.872;12.972;2023-04-03T09:39:05;6.70;99.90
21627;DHT22;10975;47.872;12.972;2023-04-03T09:41:32;6.80;99.90
21627;DHT22;10975;47.872;12.972;2023-04-03T09:44:01;7.00;99.90
21627;DHT22;10975;47.872;12.972;2023-04-03T09:46:32;7.00;99.90
21627;DHT22;10975;47.872;12.972;2023-04-03T09:49:01;6.90;99.90
21627;DHT22;10975;47.872;12.972;2023-04-03T09:51:35;6.80;99.90
21627;DHT22;10975;47.872;12.972;2023-04-03T09:54:23;6.60;99.90
21627;DHT22;10975;47.872;12.972;2023-04-03T09:56:49;6.60;99.90
21627;DHT22;10975;47.872;12.972;2023-04-03T09:59:17;6.70;99.90
21627;DHT22;10975;47.872;12.972;2023-04-03T10:01:56;6.80;99.90
21627;DHT22;10975;47.872;12.972;2023-04-03T10:04:24;6.80;99.90
21627;DHT22;10975;47.872;12.972;2023-04-03T10:06:55;6.80;99.90
21627;DHT22;10975;47.872;12.972;2023-04-03T10:09:28;6.60;99.90
21627;DHT22;10975;47.872;12.972;2023-04-03T10:14:32;6.60;99.90
21627;DHT22;10975;47.872;12.972;2023-04-03T10:19:46;6.50;99.90
21627;DHT22;10975;47.872;12.972;2023-04-03T10:22:28;6.30;99.90
21627;DHT22;10975;47.872;12.972;2023-04-03T10:25:00;6.10;99.90
21627;DHT22;10975;47.872;12.972;2023-04-03T10:40:35;5.00;99.90
21627;DHT22;10975;47.872;12.972;2023-04-03T10:53:42;5.00;99.90
21627;DHT22;10975;47.872;12.972;2023-04-03T10:59:02;5.30;99.90
21627;DHT22;10975;47.872;12.972;2023-04-03T11:01:26;5.40;99.90
21627;DHT22;10975;47.872;12.972;2023-04-03T11:03:57;5.50;99.90
21627;DHT22;10975;47.872;12.972;2023-04-03T11:06:25;5.70;99.90
21627;DHT22;10975;47.872;12.972;2023-04-03T11:11:38;5.80;99.90
21627;DHT22;10975;47.872;12.972;2023-04-03T11:16:37;6.20;99.90
21627;DHT22;10975;47.872;12.972;2023-04-03T11:19:22;6.30;99.90
21627;DHT22;10975;47.872;12.972;2023-04-03T11:21:56;6.40;99.90
21627;DHT22;10975;47.872;12.972;2023-04-03T11:24:27;6.50;99.90
21627;DHT22;10975;47.872;12.972;2023-04-03T11:26:56;6.60;99.90
21627;DHT22;10975;47.872;12.972;2023-04-03T11:29:26;6.80;99.90
21627;DHT22;10975;47.872;12.972;2023-04-03T11:34:36;7.10;99.90
21627;DHT22;10975;47.872;12.972;2023-04-03T11:37:17;7.20;99.90
21627;DHT22;10975;47.872;12.972;2023-04-03T11:39:54;7.40;99.90
21627;DHT22;10975;47.872;12.972;2023-04-03T11:48:51;7.40;99.90
21627;DHT22;10975;47.872;12.972;2023-04-03T11:50:51;7.50;99.90
21627;DHT22;10975;47.872;12.972;2023-04-03T12:00:51;7.50;99.90
21627;DHT22;10975;47.872;12.972;2023-04-03T12:05:49;7.50;99.90
21627;DHT22;10975;47.872;12.972;2023-04-03T12:13:37;7.00;99.90
21627;DHT22;10975;47.872;12.972;2023-04-03T12:16:05;7.00;99.90
21627;DHT22;10975;47.872;12.972;2023-04-03T12:21:10;6.90;99.90
21627;DHT22;10975;47.872;12.972;2023-04-03T12:23:37;6.80;99.90
21627;DHT22;10975;47.872;12.972;2023-04-03T12:26:24;6.90;99.90
21627;DHT22;10975;47.872;12.972;2023-04-03T12:29:13;7.00;99.90
21627;DHT22;10975;47.872;12.972;2023-04-03T12:47:37;7.80;99.90
21627;DHT22;10975;47.872;12.972;2023-04-03T12:50:28;7.90;99.90
21627;DHT22;10975;47.872;12.972;2023-04-03T12:52:57;7.90;99.90
21627;DHT22;10975;47.872;12.972;2023-04-03T12:55:28;7.80;99.90
21627;DHT22;10975;47.872;12.972;2023-04-03T12:57:54;7.70;99.90
21627;DHT22;10975;47.872;12.972;2023-04-03T13:00:33;7.70;99.90
21627;DHT22;10975;47.872;12.972;2023-04-03T13:03:01;7.60;99.90
21627;DHT22;10975;47.872;12.972;2023-04-03T13:05:28;7.60;99.90
21627;DHT22;10975;47.872;12.972;2023-04-03T13:07:58;7.40;99.90
21627;DHT22;10975;47.872;12.972;2023-04-03T13:10:24;7.50;99.90
21627;DHT22;10975;47.872;12.972;2023-04-03T13:12:55;7.60;99.90
21627;DHT22;10975;47.872;12.972;2023-04-03T13:15:24;7.60;99.90
21627;DHT22;10975;47.872;12.972;2023-04-03T13:17:52;7.80;99.90
21627;DHT22;10975;47.872;12.972;2023-04-03T13:25:30;8.00;99.90
21627;DHT22;10975;47.872;12.972;2023-04-03T13:27:57;8.10;99.90
21627;DHT22;10975;47.872;12.972;2023-04-03T13:30:39;8.20;99.90
21627;DHT22;10975;47.872;12.972;2023-04-03T13:33:21;8.00;99.90
21627;DHT22;10975;47.872;12.972;2023-04-03T13:35:54;7.80;99.90
21627;DHT22;10975;47.872;12.972;2023-04-03T13:38:23;7.80;99.90
21627;DHT22;10975;47.872;12.972;2023-04-03T13:40:51;7.80;99.90
21627;DHT22;10975;47.872;12.972;2023-04-03T13:43:28;7.70;99.90
21627;DHT22;10975;47.872;12.972;2023-04-03T13:51:06;7.30;99.90
21627;DHT22;10975;47.872;12.972;2023-04-03T13:53:33;7.30;99.90
21627;DHT22;10975;47.872;12.972;2023-04-03T13:58:31;7.10;99.90
21627;DHT22;10975;47.872;12.972;2023-04-03T14:06:08;6.70;99.90
21627;DHT22;10975;47.872;12.972;2023-04-03T14:08:36;6.70;99.90
21627;DHT22;10975;47.872;12.972;2023-04-03T14:11:10;6.70;99.90
21627;DHT22;10975;47.872;12.972;2023-04-03T14:13:38;6.70;99.90
21627;DHT22;10975;47.872;12.972;2023-04-03T14:16:07;6.60;99.90
21627;DHT22;10975;47.872;12.972;2023-04-03T14:18:41;6.60;99.90
21627;DHT22;10975;47.872;12.972;2023-04-03T14:21:10;6.50;99.90
21627;DHT22;10975;47.872;12.972;2023-04-03T14:23:37;6.60;99.90
21627;DHT22;10975;47.872;12.972;2023-04-03T14:26:09;6.70;99.90
21627;DHT22;10975;47.872;12.972;2023-04-03T14:28:36;6.80;99.90
21627;DHT22;10975;47.872;12.972;2023-04-03T14:31:03;6.80;99.90
21627;DHT22;10975;47.872;12.972;2023-04-03T14:33:30;6.80;99.90
21627;DHT22;10975;47.872;12.972;2023-04-03T14:36:01;6.70;99.90
21627;DHT22;10975;47.872;12.972;2023-04-03T14:38:31;6.60;99.90
21627;DHT22;10975;47.872;12.972;2023-04-03T14:40:58;6.50;99.90
21627;DHT22;10975;47.872;12.972;2023-04-03T14:43:39;6.40;99.90
21627;DHT22;10975;47.872;12.972;2023-04-03T14:46:10;6.30;99.90
21627;DHT22;10975;47.872;12.972;2023-04-03T14:48:37;6.30;99.90
21627;DHT22;10975;47.872;12.972;2023-04-03T14:51:04;6.20;99.90
21627;DHT22;10975;47.872;12.972;2023-04-03T14:53:31;6.20;99.90
21627;DHT22;10975;47.872;12.972;2023-04-03T14:56:09;6.20;99.90
21627;DHT22;10975;47.872;12.972;2023-04-03T14:58:37;6.20;99.90
21627;DHT22;10975;47.872;12.972;2023-04-03T15:01:03;6.20;99.90
21627;DHT22;10975;47.872;12.972;2023-04-03T15:03:30;6.30;99.90
21627;DHT22;10975;47.872;12.972;2023-04-03T15:05:57;6.30;99.90
21627;DHT22;10975;47.872;12.972;2023-04-03T15:08:25;6.40;99.90
21627;DHT22;10975;47.872;12.972;2023-04-03T15:10:52;6.40;99.90
21627;DHT22;10975;47.872;12.972;2023-04-03T15:13:20;6.50;99.90
21627;DHT22;10975;47.872;12.972;2023-04-03T15:15:47;6.50;99.90
21627;DHT22;10975;47.872;12.972;2023-04-03T15:18:18;6.50;99.90
21627;DHT22;10975;47.872;12.972;2023-04-03T15:20:47;6.60;99.90
21627;DHT22;10975;47.872;12.972;2023-04-03T15:23:15;6.60;99.90
21627;DHT22;10975;47.872;12.972;2023-04-03T15:25:42;6.70;99.90
21627;DHT22;10975;47.872;12.972;2023-04-03T15:28:19;6.70;99.90
21627;DHT22;10975;47.872;12.972;2023-04-03T15:30:48;6.80;99.90
21627;DHT22;10975;47.872;12.972;2023-04-03T15:33:15;6.90;99.90
21627;DHT22;10975;47.872;12.972;2023-04-03T15:35:42;6.90;99.90
21627;DHT22;10975;47.872;12.972;2023-04-03T15:38:09;6.90;99.90
21627;DHT22;10975;47.872;12.972;2023-04-03T15:40:36;6.90;99.90
21627;DHT22;10975;47.872;12.972;2023-04-03T15:43:04;6.80;99.90
21627;DHT22;10975;47.872;12.972;2023-04-03T15:45:31;6.80;99.90
21627;DHT22;10975;47.872;12.972;2023-04-03T15:47:58;6.70;99.90
21627;DHT22;10975;47.872;12.972;2023-04-03T15:50:25;6.70;99.90
21627;DHT22;10975;47.872;12.972;2023-04-03T15:52:52;6.70;99.90
21627;DHT22;10975;47.872;12.972;2023-04-03T15:55:22;6.70;99.90
21627;DHT22;10975;47.872;12.972;2023-04-03T15:57:48;6.70;99.90
21627;DHT22;10975;47.872;12.972;2023-04-03T16:00:16;6.60;99.90
21627;DHT22;10975;47.872;12.972;2023-04-03T16:02:43;6.60;99.90
21627;DHT22;10975;47.872;12.972;2023-04-03T16:05:11;6.50;99.90
21627;DHT22;10975;47.872;12.972;2023-04-03T16:07:40;6.50;99.90
21627;DHT22;10975;47.872;12.972;2023-04-03T16:10:08;6.50;99.90
21627;DHT22;10975;47.872;12.972;2023-04-03T16:12:35;6.70;99.90
21627;DHT22;10975;47.872;12.972;2023-04-03T16:15:02;6.70;99.90
21627;DHT22;10975;47.872;12.972;2023-04-03T16:17:29;6.50;99.90
21627;DHT22;10975;47.872;12.972;2023-04-03T16:19:56;6.40;99.90
21627;DHT22;10975;47.872;12.972;2023-04-03T16:22:23;6.40;99.90
21627;DHT22;10975;47.872;12.972;2023-04-03T16:24:51;6.40;99.90
21627;DHT22;10975;47.872;12.972;2023-04-03T16:27:17;6.40;99.90
21627;DHT22;10975;47.872;12.972;2023-04-03T16:29:44;6.40;99.90
21627;DHT22;10975;47.872;12.972;2023-04-03T16:32:11;6.30;99.90
21627;DHT22;10975;47.872;12.972;2023-04-03T16:34:38;6.30;99.90
21627;DHT22;10975;47.872;12.972;2023-04-03T16:37:07;6.30;99.90
21627;DHT22;10975;47.872;12.972;2023-04-03T16:39:35;6.20;99.90
21627;DHT22;10975;47.872;12.972;2023-04-03T16:42:01;6.20;99.90
21627;DHT22;10975;47.872;12.972;2023-04-03T16:44:28;6.10;99.90
21627;DHT22;10975;47.872;12.972;2023-04-03T16:46:55;6.10;99.90
21627;DHT22;10975;47.872;12.972;2023-04-03T16:49:22;6.00;99.90
21627;DHT22;10975;47.872;12.972;2023-04-03T16:51:49;5.90;99.90
21627;DHT22;10975;47.872;12.972;2023-04-03T16:54:15;5.80;99.90
21627;DHT22;10975;47.872;12.972;2023-04-03T16:56:42;5.70;99.90
21627;DHT22;10975;47.872;12.972;2023-04-03T16:59:09;5.60;99.90
21627;DHT22;10975;47.872;12.972;2023-04-03T17:01:36;5.50;99.90
21627;DHT22;10975;47.872;12.972;2023-04-03T17:04:02;5.40;99.90
21627;DHT22;10975;47.872;12.972;2023-04-03T17:06:29;5.40;99.90
21627;DHT22;10975;47.872;12.972;2023-04-03T17:08:56;5.30;99.90
21627;DHT22;10975;47.872;12.972;2023-04-03T17:11:23;5.20;99.90
21627;DHT22;10975;47.872;12.972;2023-04-03T17:13:50;5.10;99.90
21627;DHT22;10975;47.872;12.972;2023-04-03T17:16:16;5.10;99.90
21627;DHT22;10975;47.872;12.972;2023-04-03T17:18:43;5.00;99.90
21627;DHT22;10975;47.872;12.972;2023-04-03T17:21:11;5.00;99.90
21627;DHT22;10975;47.872;12.972;2023-04-03T17:23:50;5.00;99.90
21627;DHT22;10975;47.872;12.972;2023-04-03T17:26:19;5.00;99.90
21627;DHT22;10975;47.872;12.972;2023-04-03T17:28:47;4.90;99.90
21627;DHT22;10975;47.872;12.972;2023-04-03T17:31:13;4.90;99.90
21627;DHT22;10975;47.872;12.972;2023-04-03T17:33:40;4.90;99.90
21627;DHT22;10975;47.872;12.972;2023-04-03T17:36:07;4.80;99.90
21627;DHT22;10975;47.872;12.972;2023-04-03T17:38:34;4.80;99.90
21627;DHT22;10975;47.872;12.972;2023-04-03T17:41:01;4.70;99.90
21627;DHT22;10975;47.872;12.972;2023-04-03T17:43:28;4.70;99.90